Skip Navigation Links
NOAA logo - Click to go to the NOAA homepage
NOAA's National Weather Service
Alaska Aviation Weather Unit
  NWS logo - Click to go to the NWS homepage
Left Navbar Graphic     22 AKDT = 06 GMT

   
NOAA is celebrating 200 years of science, service, and stewardship. Visit the NOAA 200th celebration Web site to learn more.
USA.gov is the U.S. Government's official Web portal to all Federal, state and local government Web resources and services.
Facebook
NWS on Facebook

Important Change Regarding the AAWU Web Presence

 

Over the last several months, the AAWU has been working to navigate its webpages to a nationally supported server. Security, as well as other needs, have necessitated the change.  We have been given an extension for the site changeover while we diligently work at addressing feedback received. As of July 14, 2017, aawu.arh.noaa.gov will be discontinued. The new AAWU web address is weather.gov/aawu. It is now live and will run in-parallel with the old site until it is discontinued on July 14, 2017. Please continue to send any feedback or questions regarding the new webpages to nws.ar.aawu.webauthors@noaa.gov.  Thank you for your patience during this time of transition.
AAWU Home :: Display TAF Add Bookmark
TAF PAWG 260545Z 2606/2706 VRB04KT P6SM -RA OVC050
     FM260700 VRB03KT 4SM -RA BR SCT007 OVC050
     FM261100 VRB04KT 5SM -RA BR BKN007 OVC025
     FM261700 22006KT 6SM -RA SCT010 OVC025
     FM270300 VRB02KT P6SM -RA SCT020 OVC035
      AMD NOT SKED=

METAR PAWG 260056Z 00000KT 8SM RA BKN045 OVC065 13/12 A3002= METAR PAWG 260150Z 00000KT 8SM -RA BKN045 OVC065 14/12 A3001= METAR PAWG 260256Z 00000KT 8SM FEW030 BKN060 OVC080 12/12 A3000= METAR PAWG 260356Z 00000KT 10SM -RA FEW030 BKN060 OVC080 13/12 A2999= METAR PAWG 260450Z 00000KT 7SM -RA FEW005 SCT035 OVC060 12/12 A2998= SPECI PAWG 260535Z 00000KT 3SM -RA BKN002 OVC030 12/12 A2997 RMK (MJ)= METAR PAWG 260556Z 00000KT 3SM -RA BR BKN002 OVC030 12/12 A2997=
 Alaska TAF Map

NOAA's National Weather Service
Alaska Aviation Weather Unit
6930 Sand Lake Road
Anchorage, AK 99502-1845
Disclaimer
Credits
Glossary
Privacy Policy
About Us
Career Opportunities
Contact AAWU Internet Services Site last modified: April, 17th 2012